Time;durP1;ratioP1;P1;durP2;ratioP2;P2;SDS_P1;SDS_P2;PMS_P1;PMS_P2;Temp;Humidity;BMP_temperature;BMP_pressure;BME280_temperature;BME280_humidity;BME280_pressure;Samples;Min_cycle;Max_cycle;Signal;HPM_P1;HPM_P2
2021/05/10 00:04:11;;;;;;;7.72;4.60;;;;;;;15.76;54.85;100276.36;5163968;56;1138764;-72
2021/05/10 00:09:18;;;;;;;11.73;4.87;;;;;;;15.68;55.08;100269.66;5163853;56;1138226;-77
2021/05/10 00:14:39;;;;;;;5.80;4.53;;;;;;;15.58;55.29;100264.94;5163707;56;1140960;-75
2021/05/10 00:19:35;;;;;;;16.57;6.03;;;;;;;15.46;55.41;100261.16;5162276;56;1138483;-75
2021/05/10 00:24:41;;;;;;;12.10;4.67;;;;;;;15.38;55.55;100257.61;5177442;56;1140818;-76
2021/05/10 00:29:47;;;;;;;8.47;4.97;;;;;;;15.27;55.85;100259.20;5177376;56;1140353;-76
2021/05/10 00:34:53;;;;;;;14.37;5.67;;;;;;;15.19;55.90;100249.80;5177661;56;1138337;-74
2021/05/10 00:39:59;;;;;;;6.23;4.77;;;;;;;15.12;56.20;100244.27;5177469;56;1140421;-75
2021/05/10 00:45:07;;;;;;;6.28;4.90;;;;;;;15.01;56.37;100245.83;5177656;56;1138274;-75
2021/05/10 00:50:14;;;;;;;8.77;4.37;;;;;;;14.91;56.34;100241.09;5177838;56;1138397;-77
2021/05/10 00:55:20;;;;;;;5.33;4.10;;;;;;;14.81;56.55;100247.00;5177663;56;1139014;-75
2021/05/10 01:00:26;;;;;;;9.23;4.80;;;;;;;14.72;56.75;100252.23;5177443;56;1138367;-73
2021/05/10 01:05:33;;;;;;;12.20;4.27;;;;;;;14.66;56.85;100250.70;5177471;56;1138341;-76
2021/05/10 01:10:39;;;;;;;13.43;3.90;;;;;;;14.63;57.06;100252.32;5177192;56;1140822;-74
2021/05/10 01:15:51;;;;;;;12.63;5.53;;;;;;;14.59;57.12;100249.12;5177349;56;1141103;-72
2021/05/10 01:21:00;;;;;;;8.75;5.35;;;;;;;14.51;57.28;100241.56;5177426;56;1140890;-75
2021/05/10 01:26:06;;;;;;;7.10;4.17;;;;;;;14.46;57.30;100241.17;5177520;55;1138783;-74
2021/05/10 01:31:15;;;;;;;7.55;4.42;;;;;;;14.38;57.30;100243.20;5177681;56;1138501;-75
2021/05/10 01:36:19;;;;;;;5.23;3.70;;;;;;;14.34;57.32;100245.84;5177473;56;1138457;-75
2021/05/10 01:41:25;;;;;;;5.90;3.50;;;;;;;14.29;57.57;100248.10;5177365;56;1138900;-71
2021/05/10 01:46:31;;;;;;;5.77;3.93;;;;;;;14.21;57.68;100242.67;5177506;56;1138614;-75
2021/05/10 01:51:37;;;;;;;11.20;5.07;;;;;;;14.09;57.88;100232.73;5177472;56;1138457;-76
2021/05/10 01:56:43;;;;;;;11.70;4.80;;;;;;;14.04;58.01;100232.37;5177234;56;1140515;-76
2021/05/10 02:01:49;;;;;;;7.53;5.17;;;;;;;13.99;57.82;100234.13;5177177;56;1140504;-73
2021/05/10 02:07:04;;;;;;;7.00;4.77;;;;;;;13.94;57.89;100232.39;5177235;56;1138495;-74
2021/05/10 02:12:10;;;;;;;5.78;4.00;;;;;;;13.90;58.04;100233.67;5177567;56;1138725;-74
2021/05/10 02:17:15;;;;;;;5.93;4.67;;;;;;;13.80;58.23;100226.73;5177724;56;1138860;-75
2021/05/10 02:22:21;;;;;;;9.63;4.50;;;;;;;13.70;58.41;100227.63;5178128;56;1138363;-74
2021/05/10 02:27:27;;;;;;;9.60;5.33;;;;;;;13.65;58.24;100236.52;5177878;55;1138385;-76
2021/05/10 02:32:33;;;;;;;6.83;4.80;;;;;;;13.61;58.37;100227.64;5177945;56;1138316;-74
2021/05/10 02:37:39;;;;;;;8.83;4.37;;;;;;;13.57;58.24;100235.09;5178077;56;1138343;-75
2021/05/10 02:42:45;;;;;;;5.40;4.47;;;;;;;13.54;58.12;100232.71;5177956;56;1138820;-72
2021/05/10 02:47:51;;;;;;;8.77;4.70;;;;;;;13.50;58.11;100233.97;5177934;55;1138301;-73
2021/05/10 02:52:58;;;;;;;10.50;4.87;;;;;;;13.46;58.03;100231.25;5188205;56;1138284;-77
2021/05/10 02:58:05;;;;;;;11.25;4.95;;;;;;;13.36;57.96;100225.14;5177838;55;1140856;-75
2021/05/10 03:03:11;;;;;;;8.70;4.60;;;;;;;13.33;58.01;100229.41;5177830;56;1140607;-74
2021/05/10 03:08:16;;;;;;;8.60;5.05;;;;;;;13.23;58.29;100228.60;5178078;56;1138333;-73
2021/05/10 03:13:23;;;;;;;8.63;5.63;;;;;;;13.15;58.69;100228.45;5177828;56;1138357;-75
2021/05/10 03:18:29;;;;;;;7.87;4.58;;;;;;;13.10;58.60;100238.66;5178094;56;1138716;-74
2021/05/10 03:23:35;;;;;;;9.63;4.97;;;;;;;13.04;59.10;100236.07;5178064;56;1138596;-77
2021/05/10 03:28:41;;;;;;;11.27;6.03;;;;;;;12.97;59.00;100240.28;5177648;56;1139354;-76
2021/05/10 03:33:47;;;;;;;8.70;5.37;;;;;;;12.91;59.02;100243.00;5177490;56;1141041;-73
2021/05/10 03:38:53;;;;;;;8.77;5.27;;;;;;;12.90;59.08;100241.33;5177848;56;1138960;-74
2021/05/10 03:44:00;;;;;;;7.63;4.43;;;;;;;12.87;59.06;100239.44;5185387;56;1138393;-74
2021/05/10 03:49:06;;;;;;;10.08;5.55;;;;;;;12.83;59.53;100239.39;5162707;56;1138801;-76
2021/05/10 03:54:12;;;;;;;8.55;4.92;;;;;;;12.78;59.31;100231.84;5177654;56;1141138;-75
2021/05/10 03:59:19;;;;;;;12.13;5.53;;;;;;;12.76;59.39;100238.25;5177833;56;1139072;-76
2021/05/10 04:04:37;;;;;;;6.47;4.53;;;;;;;12.77;59.29;100227.99;5177310;56;1140343;-74
2021/05/10 04:14:56;;;;;;;7.45;4.75;;;;;;;12.79;59.16;100229.53;5177907;56;1138340;-75
2021/05/10 04:20:01;;;;;;;12.70;5.50;;;;;;;12.83;59.02;100230.09;5177821;56;1138407;-76
2021/05/10 04:25:08;;;;;;;11.33;5.57;;;;;;;12.86;58.80;100224.48;5177472;56;1140889;-76
2021/05/10 04:30:15;;;;;;;9.70;4.65;;;;;;;12.91;58.82;100221.77;5177453;56;1140553;-73
2021/05/10 04:35:21;;;;;;;10.50;4.57;;;;;;;12.95;58.62;100216.53;5177641;56;1138358;-73
2021/05/10 04:40:27;;;;;;;12.27;5.60;;;;;;;13.01;58.44;100216.44;5177468;56;1140907;-74
2021/05/10 04:45:34;;;;;;;8.43;4.80;;;;;;;13.09;58.25;100211.76;5177296;56;1140306;-73
2021/05/10 04:50:39;;;;;;;10.00;4.77;;;;;;;13.14;58.15;100212.18;5145464;56;1138229;-74
2021/05/10 04:55:46;;;;;;;5.80;4.63;;;;;;;13.21;57.84;100209.31;5177446;56;1140350;-72
2021/05/10 05:00:51;;;;;;;16.83;5.87;;;;;;;13.27;57.65;100212.25;5177528;56;1138959;-74
2021/05/10 05:05:57;;;;;;;27.70;6.53;;;;;;;13.36;57.74;100207.88;5172924;56;1140347;-76
2021/05/10 05:11:03;;;;;;;11.80;5.80;;;;;;;13.46;57.80;100199.38;5177848;56;1150028;-73
2021/05/10 05:16:09;;;;;;;11.40;4.90;;;;;;;13.62;57.21;100200.92;5177343;56;1140596;-77
2021/05/10 05:21:14;;;;;;;50.15;7.17;;;;;;;13.77;56.60;100203.93;5177419;56;1140935;-76
2021/05/10 05:26:20;;;;;;;23.63;7.13;;;;;;;13.94;56.45;100202.31;5177186;56;1140608;-77
2021/05/10 05:31:25;;;;;;;11.77;5.00;;;;;;;14.18;56.51;100197.78;5166447;56;1140741;-74
2021/05/10 05:36:31;;;;;;;46.10;7.90;;;;;;;14.40;55.79;100202.19;5163438;56;1140512;-74
2021/05/10 05:41:37;;;;;;;9.77;5.10;;;;;;;14.62;55.82;100180.95;5163465;56;1140853;-74
2021/05/10 05:46:48;;;;;;;16.37;5.50;;;;;;;14.80;55.41;100179.61;5163482;56;1138328;-74
2021/05/10 05:51:50;;;;;;;37.60;8.10;;;;;;;14.96;55.56;100179.73;5163238;56;1140804;-75
2021/05/10 05:56:56;;;;;;;36.60;6.70;;;;;;;15.12;56.09;100183.81;5164177;56;1140536;-76
2021/05/10 06:02:02;;;;;;;11.73;5.00;;;;;;;15.32;55.08;100180.95;5164175;56;1140894;-78
2021/05/10 06:07:07;;;;;;;30.40;6.65;;;;;;;15.52;54.28;100189.06;5163953;55;1140527;-74
2021/05/10 06:12:14;;;;;;;99.40;11.05;;;;;;;15.66;53.06;100202.33;5163894;56;1140389;-78
2021/05/10 06:17:19;;;;;;;28.83;5.80;;;;;;;15.78;53.37;100207.20;5163264;56;1143195;-73
2021/05/10 06:22:25;;;;;;;12.47;5.03;;;;;;;15.92;52.99;100204.43;5163555;56;1140830;-73
2021/05/10 06:27:31;;;;;;;24.40;6.07;;;;;;;16.05;52.66;100203.47;5163361;56;1140646;-73
2021/05/10 06:32:37;;;;;;;18.23;5.87;;;;;;;16.23;52.02;100203.86;5148335;56;1140446;-75
2021/05/10 06:37:43;;;;;;;9.30;5.17;;;;;;;16.44;52.97;100210.92;5100086;56;1140568;-78
2021/05/10 06:42:48;;;;;;;11.27;4.43;;;;;;;16.67;52.71;100209.80;5100997;56;1138443;-77
2021/05/10 06:47:54;;;;;;;101.30;10.50;;;;;;;16.91;51.48;100201.81;5100629;56;1140353;-76
2021/05/10 06:53:00;;;;;;;28.57;5.30;;;;;;;17.15;51.38;100198.27;5100466;56;1145017;-70
2021/05/10 06:58:10;;;;;;;8.07;3.20;;;;;;;17.38;48.83;100197.08;5100268;56;1140567;-76
2021/05/10 07:03:15;;;;;;;6.50;2.58;;;;;;;17.61;49.10;100195.33;5099936;56;1138553;-74
2021/05/10 07:08:21;;;;;;;4.08;2.40;;;;;;;17.76;47.20;100192.80;5099755;56;1138556;-75
2021/05/10 07:13:27;;;;;;;5.50;2.30;;;;;;;17.97;47.79;100185.03;5099900;56;1138706;-76
2021/05/10 07:18:33;;;;;;;3.93;2.80;;;;;;;18.22;46.86;100185.72;5099606;56;1138742;-72
2021/05/10 07:23:39;;;;;;;29.03;3.83;;;;;;;18.44;47.04;100184.92;5099984;56;1138749;-74
2021/05/10 07:28:45;;;;;;;9.07;2.10;;;;;;;18.66;44.99;100182.44;5099415;56;1140720;-75
2021/05/10 07:33:51;;;;;;;7.33;3.70;;;;;;;18.78;43.37;100182.37;5098455;56;1138497;-73
2021/05/10 07:38:56;;;;;;;4.43;3.00;;;;;;;18.91;44.41;100183.92;5097546;56;1138528;-74
2021/05/10 07:44:06;;;;;;;24.47;5.13;;;;;;;19.15;45.70;100196.25;5108644;56;1138720;-74
2021/05/10 07:49:12;;;;;;;4.53;3.08;;;;;;;19.33;45.34;100196.75;5097337;56;1140651;-73
2021/05/10 07:54:18;;;;;;;9.38;2.90;;;;;;;19.52;43.52;100197.59;5097862;56;1138375;-75
2021/05/10 07:59:24;;;;;;;3.78;2.42;;;;;;;19.72;42.76;100200.52;5097388;56;1138534;-77
2021/05/10 08:04:29;;;;;;;4.03;2.67;;;;;;;19.91;41.93;100201.81;5097465;56;1138643;-75
2021/05/10 08:09:36;;;;;;;3.17;2.17;;;;;;;20.00;41.75;100189.97;5097319;56;1138356;-76
2021/05/10 08:14:42;;;;;;;20.10;3.27;;;;;;;20.09;40.88;100179.94;5097672;56;1138814;-73
2021/05/10 08:19:49;;;;;;;60.38;6.20;;;;;;;20.25;42.43;100173.00;5097067;56;1140619;-74
2021/05/10 08:24:54;;;;;;;10.53;2.80;;;;;;;20.31;41.68;100162.34;5096919;56;1140477;-76
2021/05/10 08:30:00;;;;;;;27.00;4.67;;;;;;;20.36;40.23;100173.36;5097349;56;1140528;-74
2021/05/10 08:35:07;;;;;;;15.55;2.83;;;;;;;20.48;40.83;100148.16;5126645;56;1141108;-72
2021/05/10 08:40:13;;;;;;;3.92;1.92;;;;;;;20.64;40.46;100144.38;5156316;56;1140542;-74
2021/05/10 08:45:22;;;;;;;41.80;8.98;;;;;;;20.79;39.22;100138.41;5156426;56;1138833;-74
2021/05/10 08:50:29;;;;;;;18.35;4.72;;;;;;;20.91;39.49;100137.39;5156039;56;1140788;-74
2021/05/10 08:55:35;;;;;;;58.33;6.55;;;;;;;20.96;39.76;100135.75;5155935;56;1140596;-75
2021/05/10 09:00:53;;;;;;;67.67;46.15;;;;;;;21.10;39.15;100146.60;5156209;56;1140850;-76
2021/05/10 09:06:01;;;;;;;51.75;35.00;;;;;;;21.23;38.51;100144.06;5155799;56;1143035;-74
2021/05/10 09:11:11;;;;;;;10.85;5.65;;;;;;;21.39;38.48;100147.23;5136111;56;1142794;-77
2021/05/10 09:16:17;;;;;;;5.08;2.35;;;;;;;21.63;38.45;100161.25;5156142;56;1140704;-73
2021/05/10 09:21:30;;;;;;;33.55;5.22;;;;;;;21.78;36.90;100148.48;5156602;56;1138570;-74
2021/05/10 09:26:37;;;;;;;4.22;1.98;;;;;;;21.95;37.63;100132.81;5155992;56;1140856;-77
2021/05/10 09:31:49;;;;;;;3.90;1.75;;;;;;;22.05;36.95;100139.50;5156435;56;1138528;-73
2021/05/10 09:37:00;;;;;;;27.05;3.95;;;;;;;22.17;37.97;100130.30;5156119;56;1138569;-77
2021/05/10 09:42:07;;;;;;;6.22;2.50;;;;;;;22.39;36.85;100130.47;5156376;56;1140995;-77
2021/05/10 09:47:16;;;;;;;3.80;2.05;;;;;;;22.43;36.20;100122.30;5156318;56;1138702;-75
2021/05/10 09:52:25;;;;;;;3.70;1.80;;;;;;;22.52;37.30;100144.47;5156040;56;1138588;-77
2021/05/10 09:57:31;;;;;;;6.10;2.27;;;;;;;22.64;35.97;100139.29;5155994;56;1138792;-75
2021/05/10 10:02:37;;;;;;;9.30;2.15;;;;;;;22.83;36.43;100133.62;5155909;56;1138763;-76
2021/05/10 10:07:44;;;;;;;2.47;1.75;;;;;;;23.00;37.56;100143.79;5155451;56;1138610;-75
2021/05/10 10:12:49;;;;;;;7.08;1.90;;;;;;;23.20;34.96;100137.03;5156386;56;1138526;-75
2021/05/10 10:17:57;;;;;;;6.45;2.25;;;;;;;23.24;35.31;100111.78;5156031;56;1138525;-74
2021/05/10 10:23:04;;;;;;;13.00;3.08;;;;;;;23.19;34.98;100129.97;5156317;56;1138498;-73
2021/05/10 10:28:11;;;;;;;4.12;1.74;;;;;;;23.09;34.68;100115.55;5155908;56;1140794;-78
2021/05/10 10:33:34;;;;;;;2.33;2.00;;;;;;;23.04;34.90;100126.16;5156375;56;1138785;-75
2021/05/10 10:38:40;;;;;;;7.58;1.70;;;;;;;23.08;34.83;100127.38;5156549;56;1138637;-75
2021/05/10 10:43:46;;;;;;;10.53;2.90;;;;;;;23.19;35.92;100118.34;5157083;56;1138769;-75
2021/05/10 10:48:55;;;;;;;8.40;2.00;;;;;;;23.35;35.14;100102.53;5151354;56;1140992;-75
2021/05/10 10:54:00;;;;;;;16.23;2.35;;;;;;;23.53;35.56;100114.01;5134017;55;1138709;-75
2021/05/10 10:59:37;;;;;;;18.75;2.17;;;;;;;23.81;35.81;100124.52;5118492;56;1140980;-76
2021/05/10 11:04:43;;;;;;;6.37;2.35;;;;;;;24.05;33.15;100116.17;5119949;56;1140641;-74
2021/05/10 11:09:51;;;;;;;6.37;1.77;;;;;;;24.23;34.17;100104.15;5130495;56;1138519;-75
2021/05/10 11:14:58;;;;;;;3.02;1.52;;;;;;;24.46;33.31;100101.69;5157782;54;1138466;-74
2021/05/10 11:20:13;;;;;;;7.75;1.70;;;;;;;24.60;32.93;100117.80;5156880;56;1138770;-74
2021/05/10 11:25:39;;;;;;;3.33;1.40;;;;;;;24.58;31.25;100125.33;5156658;56;1138800;-74
2021/05/10 11:31:07;;;;;;;4.67;1.72;;;;;;;24.53;31.90;100117.88;5156331;56;1138302;-74
2021/05/10 11:36:34;;;;;;;2.60;1.40;;;;;;;24.54;32.14;100122.23;5156829;56;1138924;-74
2021/05/10 11:41:44;;;;;;;5.97;1.17;;;;;;;24.58;31.77;100126.16;5153548;54;1138409;-74
2021/05/10 11:46:54;;;;;;;9.13;1.73;;;;;;;24.56;32.00;100118.79;5152575;56;1138566;-74
2021/05/10 11:52:27;;;;;;;3.72;1.57;;;;;;;24.57;32.85;100110.98;5153228;54;1138667;-76
2021/05/10 11:57:37;;;;;;;3.50;1.77;;;;;;;24.77;32.66;100104.86;5152621;56;1138546;-74
2021/05/10 12:02:47;;;;;;;1.27;1.00;;;;;;;24.99;32.36;100080.98;5153049;54;1138529;-74
2021/05/10 12:07:53;;;;;;;10.75;2.33;;;;;;;25.11;32.14;100102.71;5152431;56;1138553;-73
2021/05/10 12:12:59;;;;;;;3.40;1.70;;;;;;;25.38;31.55;100108.14;5138391;56;1140555;-71
2021/05/10 12:18:07;;;;;;;1.10;1.00;;;;;;;25.55;31.87;100105.66;5152432;56;1138469;-75
2021/05/10 12:23:16;;;;;;;2.08;1.35;;;;;;;25.66;31.05;100101.41;5153023;56;1138453;-71
2021/05/10 12:28:26;;;;;;;9.40;1.83;;;;;;;25.69;31.51;100099.05;5147254;56;1138626;-74
2021/05/10 12:33:33;;;;;;;9.03;2.12;;;;;;;25.72;32.04;100096.42;5152755;56;1139075;-73
2021/05/10 12:38:46;;;;;;;2.62;1.55;;;;;;;25.79;33.00;100095.82;5152448;56;1138808;-74
2021/05/10 12:43:54;;;;;;;6.30;1.50;;;;;;;25.88;32.32;100097.97;5152416;56;1138966;-72
2021/05/10 12:48:59;;;;;;;12.40;3.85;;;;;;;25.99;32.34;100092.30;5152628;56;1138501;-74
2021/05/10 12:54:13;;;;;;;3.40;1.42;;;;;;;26.14;31.76;100080.50;5152342;56;1140624;-72
2021/05/10 12:59:14;;;;;;;4.87;1.62;;;;;;;26.21;31.52;100081.24;5151979;56;1138533;-73
2021/05/10 13:04:21;;;;;;;5.33;2.30;;;;;;;26.20;30.69;100040.28;5152781;56;1138705;-74
2021/05/10 13:09:29;;;;;;;2.87;2.33;;;;;;;26.01;30.94;100070.39;5153063;56;1138591;-72
2021/05/10 13:14:44;;;;;;;5.75;1.37;;;;;;;25.95;31.68;100084.34;5152849;56;1138872;-73
2021/05/10 13:20:34;;;;;;;3.27;1.17;;;;;;;26.05;31.40;100090.03;5152920;56;1138427;-74
2021/05/10 13:31:42;;;;;;;3.15;1.95;;;;;;;26.43;31.24;100065.27;5104402;56;1138414;-73
2021/05/10 13:36:44;;;;;;;6.03;1.47;;;;;;;26.70;31.65;100064.32;5138608;56;1138651;-72
2021/05/10 13:47:19;;;;;;;13.40;3.23;;;;;;;27.03;30.85;100027.64;5114244;56;1138439;-73
2021/05/10 13:52:25;;;;;;;6.67;2.73;;;;;;;26.99;29.71;100027.82;5121649;56;1140589;-73
2021/05/10 13:57:32;;;;;;;3.85;2.00;;;;;;;26.93;30.10;100028.20;5125273;56;1138477;-72
2021/05/10 14:02:38;;;;;;;9.45;2.05;;;;;;;26.87;29.91;100016.42;5120840;56;1138829;-74
2021/05/10 14:07:44;;;;;;;9.08;1.60;;;;;;;26.94;30.75;100033.42;5126155;56;1138816;-77
2021/05/10 14:12:50;;;;;;;3.12;1.27;;;;;;;26.95;31.08;100029.65;5137005;56;1138905;-73
2021/05/10 14:17:55;;;;;;;9.18;2.00;;;;;;;27.10;31.02;100037.30;5154263;56;1138821;-75
2021/05/10 14:23:01;;;;;;;5.92;1.65;;;;;;;27.09;30.19;100036.17;5154266;56;1138793;-73
2021/05/10 14:28:10;;;;;;;9.38;1.60;;;;;;;27.00;30.05;100037.61;5154273;55;1138228;-75
2021/05/10 14:33:16;;;;;;;6.03;1.50;;;;;;;26.98;30.47;100045.99;5154170;56;1138545;-73
2021/05/10 14:38:25;;;;;;;2.85;1.40;;;;;;;27.02;30.37;100053.96;5154505;55;1138513;-75
2021/05/10 14:43:36;;;;;;;7.30;1.47;;;;;;;27.12;30.85;100047.39;5154144;56;1138992;-76
2021/05/10 14:48:42;;;;;;;5.87;1.35;;;;;;;27.20;31.04;100038.03;5149752;56;1138549;-74
2021/05/10 14:53:48;;;;;;;7.65;1.17;;;;;;;27.33;31.12;100048.66;5153964;56;1138896;-75
2021/05/10 14:58:54;;;;;;;6.97;2.35;;;;;;;27.42;31.03;100055.88;5154082;56;1138587;-72
2021/05/10 15:04:00;;;;;;;5.55;1.82;;;;;;;27.39;30.31;100062.61;5154069;56;1138512;-74
2021/05/10 15:09:06;;;;;;;10.55;2.20;;;;;;;27.39;31.59;100069.41;5154017;56;1138650;-74
2021/05/10 15:14:13;;;;;;;10.85;1.40;;;;;;;27.43;31.43;100075.19;5133708;56;1140828;-74
2021/05/10 15:19:19;;;;;;;7.33;1.97;;;;;;;27.46;31.65;100073.36;5117622;55;1140723;-74
2021/05/10 15:24:24;;;;;;;6.05;1.75;;;;;;;27.52;32.01;100078.64;5130769;56;1138842;-73
2021/05/10 15:29:30;;;;;;;8.83;1.50;;;;;;;27.59;31.61;100079.38;5138279;56;1138552;-73
2021/05/10 15:34:38;;;;;;;4.80;1.70;;;;;;;27.58;31.81;100080.97;5125479;56;1138566;-74
2021/05/10 15:39:45;;;;;;;9.83;1.60;;;;;;;27.63;32.15;100088.70;5154379;56;1138384;-75
2021/05/10 15:44:54;;;;;;;6.90;1.32;;;;;;;27.66;32.51;100088.73;5118217;56;1138860;-72
2021/05/10 15:49:59;;;;;;;3.35;1.45;;;;;;;27.74;32.35;100086.17;5156351;56;1138381;-75
2021/05/10 15:55:07;;;;;;;4.60;1.90;;;;;;;27.85;31.69;100086.66;5156504;56;1138514;-75
2021/05/10 16:00:14;;;;;;;7.40;1.57;;;;;;;27.91;31.80;100086.52;5153471;56;1138852;-74
2021/05/10 16:05:20;;;;;;;7.67;2.08;;;;;;;27.85;32.91;100083.94;5136028;56;1138490;-71
2021/05/10 16:10:25;;;;;;;6.00;1.80;;;;;;;27.85;32.91;100083.94;5131625;56;1138738;-74
2021/05/10 16:15:31;;;;;;;9.23;2.13;;;;;;;27.82;33.08;100087.96;5151713;56;1138769;-73
2021/05/10 16:20:37;;;;;;;5.55;2.10;;;;;;;27.82;33.10;100083.88;5156531;56;1138309;-73
2021/05/10 16:25:43;;;;;;;12.05;1.98;;;;;;;27.79;32.95;100087.11;5125150;56;1138459;-73
2021/05/10 16:30:49;;;;;;;19.85;2.60;;;;;;;27.72;32.02;100085.59;5145906;56;1140514;-72
2021/05/10 16:35:55;;;;;;;7.78;3.10;;;;;;;27.66;32.88;100082.76;5156498;56;1140551;-75
2021/05/10 16:41:00;;;;;;;6.92;1.90;;;;;;;27.61;32.96;100096.27;5156711;56;1138635;-74
2021/05/10 16:46:06;;;;;;;3.37;2.05;;;;;;;27.56;32.83;100096.65;5156429;56;1138441;-76
2021/05/10 16:51:13;;;;;;;7.86;2.30;;;;;;;27.50;33.65;100088.13;5133930;56;1138354;-72
2021/05/10 16:56:25;;;;;;;8.70;2.00;;;;;;;27.47;33.87;100085.88;5107170;56;1139008;-75
2021/05/10 17:01:26;;;;;;;9.00;2.10;;;;;;;27.44;33.51;100099.93;5122828;56;1138482;-74
2021/05/10 17:06:33;;;;;;;8.85;3.67;;;;;;;27.30;33.14;100097.48;5121793;56;1138923;-75
2021/05/10 17:11:38;;;;;;;7.15;2.20;;;;;;;27.23;33.99;100109.52;5121765;56;1138767;-73
2021/05/10 17:16:44;;;;;;;13.20;2.37;;;;;;;27.15;34.03;100106.64;5121695;56;1138837;-73
2021/05/10 17:21:50;;;;;;;12.70;2.30;;;;;;;27.06;34.61;100116.72;5121571;56;1140337;-74
2021/05/10 17:26:56;;;;;;;4.67;1.70;;;;;;;26.96;34.90;100121.40;5121504;56;1140535;-72
2021/05/10 17:32:02;;;;;;;2.15;1.90;;;;;;;26.89;35.22;100120.11;5121831;56;1138231;-70
2021/05/10 17:37:09;;;;;;;3.40;2.15;;;;;;;26.79;35.18;100124.48;5121849;56;1138256;-72
2021/05/10 17:42:15;;;;;;;5.60;2.95;;;;;;;26.69;35.43;100130.49;5121831;56;1138460;-74
2021/05/10 17:47:21;;;;;;;11.33;3.33;;;;;;;26.61;35.68;100131.64;5121865;56;1138305;-74
2021/05/10 17:52:27;;;;;;;26.80;10.18;;;;;;;26.52;35.88;100133.58;5097346;56;1140587;-75
2021/05/10 17:57:32;;;;;;;45.10;6.58;;;;;;;26.44;36.11;100139.32;5094122;56;1142992;-75
2021/05/10 18:08:01;;;;;;;16.82;3.60;;;;;;;26.20;36.29;100128.39;5094335;56;1140743;-76
2021/05/10 18:13:07;;;;;;;5.95;2.52;;;;;;;26.06;36.61;100136.94;5094283;56;1140568;-70
2021/05/10 18:18:14;;;;;;;21.57;9.73;;;;;;;25.94;36.98;100128.76;5094436;56;1138533;-75
2021/05/10 18:23:20;;;;;;;10.48;2.90;;;;;;;25.79;37.23;100125.09;5094761;56;1140624;-73
2021/05/10 18:28:27;;;;;;;10.05;3.50;;;;;;;25.65;37.60;100120.90;5094273;56;1141071;-76
2021/05/10 18:33:33;;;;;;;9.75;2.67;;;;;;;25.51;37.94;100125.58;5101679;56;1140398;-71
2021/05/10 18:38:40;;;;;;;11.80;2.83;;;;;;;25.39;38.45;100119.80;5161682;56;1138435;-73
2021/05/10 18:43:47;;;;;;;14.57;3.93;;;;;;;25.25;38.89;100119.12;5161117;56;1140541;-76
2021/05/10 18:48:57;;;;;;;11.18;3.50;;;;;;;25.11;39.37;100124.36;5161170;56;1140865;-74
2021/05/10 18:54:00;;;;;;;13.30;3.92;;;;;;;24.96;39.86;100136.89;5152302;56;1140857;-74
2021/05/10 18:59:06;;;;;;;13.65;3.75;;;;;;;24.81;40.21;100139.07;5152198;56;1140743;-73
2021/05/10 19:04:12;;;;;;;7.55;3.17;;;;;;;24.63;40.68;100145.23;5152562;56;1140475;-72
2021/05/10 19:09:17;;;;;;;13.80;3.95;;;;;;;24.50;41.00;100154.80;5152712;56;1138892;-73
2021/05/10 19:14:23;;;;;;;24.85;11.03;;;;;;;24.41;41.45;100164.23;5152304;56;1140810;-73
2021/05/10 19:19:29;;;;;;;16.20;4.55;;;;;;;24.23;41.62;100166.31;5152120;56;1143100;-75
2021/05/10 19:24:36;;;;;;;26.27;5.72;;;;;;;24.09;41.87;100169.58;5154097;56;1140888;-73
2021/05/10 19:29:42;;;;;;;15.65;6.62;;;;;;;24.00;42.22;100170.84;5154350;56;1140380;-75
2021/05/10 19:34:49;;;;;;;14.63;5.62;;;;;;;23.92;42.47;100169.75;5153591;55;1140406;-73
2021/05/10 19:39:55;;;;;;;11.22;5.78;;;;;;;23.84;42.69;100164.58;5154442;56;1140988;-73
2021/05/10 19:45:01;;;;;;;8.48;4.35;;;;;;;23.73;42.85;100165.25;5154155;56;1140489;-73
2021/05/10 20:05:52;;;;;;;25.27;5.80;;;;;;;23.21;44.14;100172.42;5153980;56;1140440;-74
2021/05/10 20:10:58;;;;;;;17.60;5.85;;;;;;;23.10;44.39;100168.46;5153951;56;1140535;-71
2021/05/10 20:16:05;;;;;;;10.23;4.80;;;;;;;23.01;44.70;100172.42;5154440;56;1140514;-74
2021/05/10 20:21:10;;;;;;;13.72;5.17;;;;;;;22.91;45.08;100169.84;5154454;56;1140910;-74
2021/05/10 20:26:17;;;;;;;16.66;5.32;;;;;;;22.79;45.27;100169.61;5152907;56;1140800;-73
2021/05/10 20:31:23;;;;;;;8.43;4.47;;;;;;;22.67;45.52;100173.93;5138450;56;1140562;-74
2021/05/10 20:36:29;;;;;;;11.00;4.50;;;;;;;22.56;45.65;100171.84;5154079;56;1138468;-72
2021/05/10 20:41:36;;;;;;;9.03;4.40;;;;;;;22.48;45.84;100180.94;5153962;56;1140816;-72
2021/05/10 20:46:42;;;;;;;16.25;4.78;;;;;;;22.40;46.01;100185.19;5153749;56;1138461;-73
2021/05/10 20:51:48;;;;;;;12.50;7.58;;;;;;;22.31;46.10;100176.96;5153932;56;1140543;-75
2021/05/10 20:56:54;;;;;;;18.55;9.13;;;;;;;22.21;46.20;100177.88;5152898;56;1140686;-71
2021/05/10 21:01:59;;;;;;;17.80;8.13;;;;;;;22.16;46.36;100176.30;5152701;56;1140790;-73
2021/05/10 21:07:05;;;;;;;15.32;5.95;;;;;;;22.13;46.46;100176.73;5152698;56;1140652;-73
2021/05/10 21:12:12;;;;;;;16.30;4.45;;;;;;;22.09;46.48;100181.16;5136669;56;1140428;-72
2021/05/10 21:17:18;;;;;;;13.43;5.35;;;;;;;21.99;46.52;100182.06;5137000;56;1140658;-74
2021/05/10 21:22:24;;;;;;;10.70;5.30;;;;;;;21.90;46.51;100178.35;5142070;56;1140511;-74
2021/05/10 21:27:30;;;;;;;13.40;6.28;;;;;;;21.82;46.67;100182.58;5152727;56;1140519;-73
2021/05/10 21:32:35;;;;;;;13.70;5.05;;;;;;;21.73;46.76;100177.34;5144457;56;1140849;-73
2021/05/10 21:37:41;;;;;;;20.72;7.42;;;;;;;21.64;46.84;100179.90;5131374;56;1140432;-74
2021/05/10 21:42:47;;;;;;;16.55;7.85;;;;;;;21.56;46.86;100178.70;5124447;55;1140387;-73
2021/05/10 21:47:53;;;;;;;13.25;7.00;;;;;;;21.47;47.01;100179.06;5103969;56;1140371;-74
2021/05/10 21:52:59;;;;;;;22.62;9.28;;;;;;;21.37;47.17;100185.64;5100188;56;1140439;-70
2021/05/10 21:58:06;;;;;;;18.05;7.95;;;;;;;21.26;47.44;100181.30;5099849;56;1140330;-72
2021/05/10 22:03:14;;;;;;;15.98;6.62;;;;;;;21.22;47.61;100184.92;5100068;56;1140364;-70
2021/05/10 22:08:20;;;;;;;11.15;5.25;;;;;;;21.15;47.68;100181.30;5100231;56;1140660;-73
2021/05/10 22:13:25;;;;;;;26.17;5.45;;;;;;;21.09;47.76;100180.73;5100211;56;1140620;-72
2021/05/10 22:18:32;;;;;;;12.05;4.90;;;;;;;21.01;47.84;100183.58;5100225;55;1140669;-71
2021/05/10 22:23:38;;;;;;;13.55;5.22;;;;;;;20.92;47.93;100178.03;5100343;56;1140916;-73
2021/05/10 22:28:44;;;;;;;14.38;5.05;;;;;;;20.82;48.07;100177.52;5100635;55;1140483;-73
2021/05/10 22:33:49;;;;;;;12.15;5.35;;;;;;;20.69;48.24;100172.34;5100648;56;1140737;-73
2021/05/10 22:39:14;;;;;;;9.44;4.44;;;;;;;20.61;48.39;100180.55;5101124;56;1140657;-73
2021/05/10 22:44:28;;;;;;;11.05;4.05;;;;;;;20.54;48.49;100183.67;5101042;56;1138425;-72
2021/05/10 22:50:07;;;;;;;8.33;4.53;;;;;;;20.47;48.73;100177.92;5099786;56;1140701;-72
2021/05/10 23:20:44;;;;;;;10.30;5.30;;;;;;;19.89;49.91;100173.81;5092300;56;1138802;-73
2021/05/10 23:25:50;;;;;;;13.90;5.05;;;;;;;19.81;50.01;100177.13;5092297;56;1140583;-71
2021/05/10 23:30:56;;;;;;;9.43;4.92;;;;;;;19.72;50.16;100168.84;5092163;56;1141019;-73
2021/05/10 23:36:02;;;;;;;11.55;4.92;;;;;;;19.65;50.28;100166.08;5092482;55;1138359;-72
2021/05/10 23:41:08;;;;;;;7.65;4.47;;;;;;;19.59;50.45;100164.13;5092249;56;1140460;-71
2021/05/10 23:46:14;;;;;;;12.40;5.28;;;;;;;19.52;50.59;100165.91;5092206;56;1138212;-73
2021/05/10 23:51:22;;;;;;;11.10;5.20;;;;;;;19.44;50.75;100162.77;5095663;56;1140436;-73
2021/05/10 23:56:28;;;;;;;6.77;4.80;;;;;;;19.40;50.87;100160.12;5091678;56;1140658;-72
